Time;durP1;ratioP1;P1;durP2;ratioP2;P2;SDS_P1;SDS_P2;PMS_P1;PMS_P2;Temp;Humidity;BMP_temperature;BMP_pressure;BME280_temperature;BME280_humidity;BME280_pressure;Samples;Min_cycle;Max_cycle;Signal;HPM_P1;HPM_P2
2022/02/16 00:00:49;;;;;;;22.33;20.92;;;;;;;;;;5014598;28;20197;-89
2022/02/16 00:03:16;;;;;;;22.55;21.00;;;;;;;;;;5013056;28;20263;-88
2022/02/16 00:05:44;;;;;;;21.25;20.17;;;;;;;;;;5014205;28;20230;-89
2022/02/16 00:08:12;;;;;;;20.70;19.70;;;;;;;;;;5014223;28;20194;-89
2022/02/16 00:10:39;;;;;;;21.85;20.50;;;;;;;;;;5014253;28;20198;-89
2022/02/16 00:13:06;;;;;;;20.33;19.33;;;;;;;;;;5014150;28;20190;-87
2022/02/16 00:15:35;;;;;;;21.58;20.48;;;;;;;;;;5014560;28;20190;-88
2022/02/16 00:18:05;;;;;;;21.25;20.15;;;;;;;;;;5014246;28;20298;-89
2022/02/16 00:20:32;;;;;;;21.33;20.30;;;;;;;;;;5013271;28;20245;-88
2022/02/16 00:23:00;;;;;;;21.48;20.48;;;;;;;;;;5013889;28;20233;-88
2022/02/16 00:25:27;;;;;;;21.98;20.90;;;;;;;;;;5013790;28;20208;-89
2022/02/16 00:27:55;;;;;;;22.38;21.10;;;;;;;;;;5014205;28;20564;-89
2022/02/16 00:30:22;;;;;;;22.80;21.70;;;;;;;;;;5014103;28;20194;-88
2022/02/16 00:32:51;;;;;;;21.00;20.00;;;;;;;;;;5013697;28;20191;-88
2022/02/16 00:35:19;;;;;;;20.30;19.30;;;;;;;;;;5012804;28;20210;-88
2022/02/16 00:37:46;;;;;;;22.10;21.00;;;;;;;;;;5012961;28;20229;-89
2022/02/16 00:40:14;;;;;;;20.50;19.50;;;;;;;;;;5014478;28;20424;-89
2022/02/16 00:42:41;;;;;;;21.25;20.25;;;;;;;;;;5013916;28;20659;-89
2022/02/16 00:45:09;;;;;;;20.93;19.93;;;;;;;;;;5017919;28;20256;-89
2022/02/16 00:47:37;;;;;;;20.02;19.13;;;;;;;;;;5017272;28;20954;-87
2022/02/16 00:50:06;;;;;;;21.52;20.40;;;;;;;;;;5017614;28;20195;-88
2022/02/16 00:52:33;;;;;;;21.73;20.63;;;;;;;;;;5017241;28;20197;-88
2022/02/16 00:55:01;;;;;;;20.70;19.50;;;;;;;;;;5016546;28;20542;-89
2022/02/16 00:57:28;;;;;;;21.35;20.35;;;;;;;;;;5017286;28;20217;-89
2022/02/16 00:59:55;;;;;;;21.97;20.87;;;;;;;;;;5017401;28;20205;-88
2022/02/16 01:02:23;;;;;;;21.70;20.70;;;;;;;;;;5017569;28;20552;-88
2022/02/16 01:04:50;;;;;;;20.80;19.83;;;;;;;;;;5017321;28;20225;-89
2022/02/16 01:07:19;;;;;;;21.00;19.98;;;;;;;;;;5017251;28;20202;-89
2022/02/16 01:09:46;;;;;;;22.13;21.13;;;;;;;;;;5017258;28;20206;-88
2022/02/16 01:12:14;;;;;;;20.35;19.45;;;;;;;;;;5017510;28;20427;-88
2022/02/16 01:14:41;;;;;;;21.08;20.00;;;;;;;;;;5017874;28;20719;-88
2022/02/16 01:17:09;;;;;;;21.47;20.47;;;;;;;;;;5017604;28;20222;-89
2022/02/16 01:19:36;;;;;;;20.73;19.83;;;;;;;;;;5016142;28;20457;-88
2022/02/16 01:22:04;;;;;;;22.13;21.03;;;;;;;;;;5017039;28;20241;-88
2022/02/16 01:24:33;;;;;;;21.60;20.25;;;;;;;;;;5015711;28;20763;-88
2022/02/16 01:27:00;;;;;;;21.00;20.00;;;;;;;;;;5017083;28;20206;-88
2022/02/16 01:29:31;;;;;;;21.65;20.63;;;;;;;;;;5017102;28;20194;-87
2022/02/16 01:31:58;;;;;;;21.58;20.65;;;;;;;;;;5016412;28;20190;-88
2022/02/16 01:34:26;;;;;;;22.35;21.20;;;;;;;;;;5015906;28;20242;-89
2022/02/16 01:36:53;;;;;;;22.25;21.17;;;;;;;;;;5016666;28;20305;-88
2022/02/16 01:39:21;;;;;;;21.10;20.08;;;;;;;;;;5016472;28;20194;-88
2022/02/16 01:41:52;;;;;;;22.42;21.33;;;;;;;;;;5016339;28;20595;-89
2022/02/16 01:44:20;;;;;;;22.80;21.70;;;;;;;;;;5016731;28;20229;-88
2022/02/16 01:46:51;;;;;;;22.58;21.38;;;;;;;;;;5016900;28;20240;-89
2022/02/16 01:49:19;;;;;;;21.90;20.90;;;;;;;;;;5016349;28;20194;-88
2022/02/16 01:51:46;;;;;;;22.00;21.00;;;;;;;;;;5016540;28;20198;-88
2022/02/16 01:54:14;;;;;;;21.63;20.53;;;;;;;;;;5016159;28;20198;-89
2022/02/16 01:56:42;;;;;;;21.85;20.85;;;;;;;;;;5015946;28;20484;-88
2022/02/16 01:59:11;;;;;;;20.33;19.42;;;;;;;;;;5016213;28;20193;-88
2022/02/16 02:01:39;;;;;;;20.40;19.50;;;;;;;;;;5015981;28;20632;-88
2022/02/16 02:04:07;;;;;;;21.65;20.65;;;;;;;;;;5016066;28;20313;-88
2022/02/16 02:06:34;;;;;;;21.40;20.40;;;;;;;;;;5015939;28;20225;-88
2022/02/16 02:09:02;;;;;;;21.20;20.20;;;;;;;;;;5015901;28;20683;-88
2022/02/16 02:11:29;;;;;;;21.38;20.38;;;;;;;;;;5015997;28;20237;-88
2022/02/16 02:13:57;;;;;;;21.13;20.13;;;;;;;;;;5015790;28;20641;-88
2022/02/16 02:16:26;;;;;;;21.45;20.35;;;;;;;;;;5015903;28;20190;-88
2022/02/16 02:18:53;;;;;;;21.80;20.80;;;;;;;;;;5015796;28;20190;-88
2022/02/16 02:21:23;;;;;;;21.50;20.50;;;;;;;;;;5016399;28;20453;-88
2022/02/16 02:23:50;;;;;;;22.13;21.08;;;;;;;;;;5015441;28;20441;-88
2022/02/16 02:26:18;;;;;;;21.45;20.45;;;;;;;;;;5015873;28;20195;-88
2022/02/16 02:28:46;;;;;;;22.70;21.60;;;;;;;;;;5015761;28;20276;-88
2022/02/16 02:31:14;;;;;;;21.67;20.60;;;;;;;;;;5015687;28;20474;-88
2022/02/16 02:33:41;;;;;;;22.90;21.90;;;;;;;;;;5015841;28;20592;-88
2022/02/16 02:36:10;;;;;;;21.50;20.50;;;;;;;;;;5015331;28;20197;-87
2022/02/16 02:38:39;;;;;;;22.00;20.70;;;;;;;;;;5015386;28;20226;-87
2022/02/16 02:41:07;;;;;;;20.40;19.50;;;;;;;;;;5015195;28;20194;-87
2022/02/16 02:43:39;;;;;;;21.52;20.45;;;;;;;;;;5015123;28;20281;-87
2022/02/16 02:46:07;;;;;;;21.50;20.50;;;;;;;;;;5015519;28;20198;-88
2022/02/16 02:48:34;;;;;;;21.02;20.02;;;;;;;;;;5015050;28;20651;-88
2022/02/16 02:51:02;;;;;;;21.37;20.27;;;;;;;;;;5015443;28;20549;-88
2022/02/16 02:53:29;;;;;;;22.65;21.55;;;;;;;;;;5015348;28;20445;-87
2022/02/16 02:55:58;;;;;;;22.30;21.20;;;;;;;;;;5015170;28;20194;-89
2022/02/16 02:58:25;;;;;;;21.83;20.80;;;;;;;;;;5014977;28;20222;-88
2022/02/16 03:00:53;;;;;;;21.08;20.08;;;;;;;;;;5014250;28;20441;-88
2022/02/16 03:03:20;;;;;;;21.25;20.25;;;;;;;;;;5015227;28;20198;-88
2022/02/16 03:05:48;;;;;;;21.30;20.30;;;;;;;;;;5015360;28;20341;-89
2022/02/16 03:08:15;;;;;;;21.05;20.05;;;;;;;;;;5015117;28;20194;-88
2022/02/16 03:10:42;;;;;;;20.88;19.90;;;;;;;;;;5013609;28;20637;-88
2022/02/16 03:13:20;;;;;;;21.60;20.60;;;;;;;;;;5013493;28;20198;-88
2022/02/16 03:15:47;;;;;;;21.17;20.20;;;;;;;;;;5014765;28;20232;-88
2022/02/16 03:18:15;;;;;;;20.67;19.67;;;;;;;;;;5014799;28;20508;-89
2022/02/16 03:20:42;;;;;;;21.55;20.45;;;;;;;;;;5014998;28;20471;-88
2022/02/16 03:23:10;;;;;;;21.73;20.73;;;;;;;;;;5014871;28;20572;-88
2022/02/16 03:25:37;;;;;;;20.73;19.83;;;;;;;;;;5014638;28;20449;-89
2022/02/16 03:28:05;;;;;;;19.60;18.70;;;;;;;;;;5014385;28;20438;-88
2022/02/16 03:30:34;;;;;;;19.92;19.02;;;;;;;;;;5013570;28;20445;-88
2022/02/16 03:33:03;;;;;;;20.33;19.43;;;;;;;;;;5014209;28;20240;-88
2022/02/16 03:35:31;;;;;;;20.63;19.70;;;;;;;;;;5014432;28;20928;-88
2022/02/16 03:37:59;;;;;;;19.90;19.10;;;;;;;;;;5014316;28;20222;-88
2022/02/16 03:40:27;;;;;;;20.40;19.50;;;;;;;;;;5014304;28;20193;-88
2022/02/16 03:42:55;;;;;;;21.07;20.07;;;;;;;;;;5014623;28;20213;-87
2022/02/16 03:45:22;;;;;;;19.40;18.60;;;;;;;;;;5014464;28;20437;-89
2022/02/16 03:47:51;;;;;;;20.80;19.90;;;;;;;;;;5014262;28;20471;-88
2022/02/16 03:50:19;;;;;;;20.80;19.80;;;;;;;;;;5014732;28;20205;-89
2022/02/16 03:52:46;;;;;;;19.90;18.90;;;;;;;;;;5014612;28;20191;-89
2022/02/16 03:55:13;;;;;;;19.27;18.45;;;;;;;;;;5014538;28;20412;-88
2022/02/16 03:57:41;;;;;;;20.30;19.40;;;;;;;;;;5014785;28;20271;-88
2022/02/16 04:00:09;;;;;;;19.38;18.50;;;;;;;;;;5014650;28;20533;-89
2022/02/16 04:02:36;;;;;;;19.43;18.63;;;;;;;;;;5014036;28;20636;-88
2022/02/16 04:05:07;;;;;;;20.33;19.35;;;;;;;;;;5013287;28;20472;-88
2022/02/16 04:07:34;;;;;;;19.90;19.00;;;;;;;;;;5014451;28;20225;-87
2022/02/16 04:10:02;;;;;;;18.77;17.97;;;;;;;;;;5014242;28;20248;-88
2022/02/16 04:12:29;;;;;;;19.40;18.45;;;;;;;;;;5014448;28;20441;-89
2022/02/16 04:14:57;;;;;;;18.90;17.95;;;;;;;;;;5012993;28;20252;-87
2022/02/16 04:17:24;;;;;;;19.10;18.20;;;;;;;;;;5014023;28;20676;-88
2022/02/16 04:19:52;;;;;;;18.60;17.80;;;;;;;;;;5016143;28;20874;-88
2022/02/16 04:22:21;;;;;;;17.90;17.10;;;;;;;;;;5017631;28;20273;-88
2022/02/16 04:24:48;;;;;;;18.70;17.90;;;;;;;;;;5018206;28;20445;-88
2022/02/16 04:27:16;;;;;;;19.27;18.17;;;;;;;;;;5018082;28;20611;-88
2022/02/16 04:29:43;;;;;;;18.17;17.38;;;;;;;;;;5017480;28;20437;-88
2022/02/16 04:32:10;;;;;;;18.00;17.20;;;;;;;;;;5017933;28;20194;-88
2022/02/16 04:34:38;;;;;;;18.30;17.50;;;;;;;;;;5017798;28;20321;-88
2022/02/16 04:37:06;;;;;;;18.50;17.70;;;;;;;;;;5017402;28;20229;-88
2022/02/16 04:39:35;;;;;;;18.50;17.70;;;;;;;;;;5017711;28;20459;-87
2022/02/16 04:42:02;;;;;;;18.40;17.63;;;;;;;;;;5017320;28;20700;-88
2022/02/16 04:44:29;;;;;;;18.40;17.70;;;;;;;;;;5017650;28;20195;-88
2022/02/16 04:46:57;;;;;;;19.57;18.77;;;;;;;;;;5017577;28;20197;-88
2022/02/16 04:49:24;;;;;;;19.43;18.53;;;;;;;;;;5017696;28;20633;-87
2022/02/16 04:51:52;;;;;;;19.30;18.50;;;;;;;;;;5017742;28;20851;-88
2022/02/16 04:54:19;;;;;;;18.90;18.10;;;;;;;;;;5017519;28;20441;-87
2022/02/16 04:56:48;;;;;;;18.90;18.10;;;;;;;;;;5017508;28;20537;-88
2022/02/16 04:59:16;;;;;;;18.80;18.00;;;;;;;;;;5017020;28;20470;-87
2022/02/16 05:01:43;;;;;;;18.33;17.52;;;;;;;;;;5016477;28;20874;-86
2022/02/16 05:04:11;;;;;;;18.77;17.98;;;;;;;;;;5017286;28;20222;-87
2022/02/16 05:06:41;;;;;;;17.73;17.03;;;;;;;;;;5017115;28;20253;-87
2022/02/16 05:09:08;;;;;;;19.25;18.35;;;;;;;;;;5017274;28;20503;-88
2022/02/16 05:11:36;;;;;;;18.67;17.88;;;;;;;;;;5016790;28;20277;-87
2022/02/16 05:14:05;;;;;;;17.90;17.10;;;;;;;;;;5016046;28;20637;-88
2022/02/16 05:16:32;;;;;;;17.67;16.80;;;;;;;;;;5017223;28;20579;-88
2022/02/16 05:19:00;;;;;;;18.63;17.83;;;;;;;;;;5017191;28;20261;-88
2022/02/16 05:21:27;;;;;;;19.13;18.13;;;;;;;;;;5017149;28;20296;-88
2022/02/16 05:23:55;;;;;;;19.20;18.30;;;;;;;;;;5016861;28;20412;-88
2022/02/16 05:26:22;;;;;;;17.30;16.60;;;;;;;;;;5016938;28;20190;-88
2022/02/16 05:28:50;;;;;;;18.80;18.00;;;;;;;;;;5015372;28;20535;-87
2022/02/16 05:31:18;;;;;;;18.70;17.90;;;;;;;;;;5015946;28;20556;-87
2022/02/16 05:33:46;;;;;;;18.93;18.13;;;;;;;;;;5016750;28;20451;-88
2022/02/16 05:36:13;;;;;;;20.10;19.20;;;;;;;;;;5016365;28;20419;-88
2022/02/16 05:38:41;;;;;;;19.45;18.65;;;;;;;;;;5015935;28;20237;-87
2022/02/16 05:41:09;;;;;;;19.75;18.85;;;;;;;;;;5016634;28;20206;-87
2022/02/16 05:43:36;;;;;;;20.42;19.45;;;;;;;;;;5016705;28;20194;-87
2022/02/16 05:46:03;;;;;;;21.02;19.85;;;;;;;;;;5016490;28;20194;-87
2022/02/16 05:48:33;;;;;;;18.52;17.52;;;;;;;;;;5016426;28;20209;-87
2022/02/16 05:51:00;;;;;;;19.50;18.60;;;;;;;;;;5016543;28;20632;-87
2022/02/16 05:53:30;;;;;;;19.17;18.37;;;;;;;;;;5015093;28;20225;-88
2022/02/16 05:55:58;;;;;;;18.23;17.42;;;;;;;;;;5016474;28;20445;-88
2022/02/16 05:58:25;;;;;;;19.10;18.10;;;;;;;;;;5015151;28;20222;-87
2022/02/16 06:00:53;;;;;;;19.40;18.48;;;;;;;;;;5016521;28;20200;-87
2022/02/16 06:03:20;;;;;;;18.95;18.05;;;;;;;;;;5016135;28;20596;-87
2022/02/16 06:05:49;;;;;;;19.08;18.17;;;;;;;;;;5015989;28;20217;-87
2022/02/16 06:08:17;;;;;;;19.10;18.30;;;;;;;;;;5015052;28;20206;-87
2022/02/16 06:10:44;;;;;;;17.70;16.90;;;;;;;;;;5015736;28;20190;-87
2022/02/16 06:13:13;;;;;;;17.73;16.92;;;;;;;;;;5015947;28;20190;-88
2022/02/16 06:15:41;;;;;;;18.03;17.23;;;;;;;;;;5015533;28;20193;-87
2022/02/16 06:18:08;;;;;;;17.85;17.05;;;;;;;;;;5015695;28;20463;-88
2022/02/16 06:20:36;;;;;;;18.42;17.63;;;;;;;;;;5015598;28;20637;-87
2022/02/16 06:23:05;;;;;;;19.23;18.40;;;;;;;;;;5016025;28;20201;-87
2022/02/16 06:25:32;;;;;;;17.60;16.80;;;;;;;;;;5014401;28;20479;-87
2022/02/16 06:28:03;;;;;;;17.95;17.15;;;;;;;;;;5015322;28;20197;-87
2022/02/16 06:30:31;;;;;;;17.45;16.65;;;;;;;;;;5015442;28;20226;-88
2022/02/16 06:32:59;;;;;;;17.47;16.77;;;;;;;;;;5015199;28;20222;-87
2022/02/16 06:35:27;;;;;;;17.13;16.43;;;;;;;;;;5014374;28;20434;-87
2022/02/16 06:37:54;;;;;;;16.93;16.23;;;;;;;;;;5015222;28;20444;-88
2022/02/16 06:40:26;;;;;;;17.43;16.63;;;;;;;;;;5014219;28;20814;-87
2022/02/16 06:42:53;;;;;;;17.55;16.75;;;;;;;;;;5015075;28;20511;-86
2022/02/16 06:45:21;;;;;;;18.27;17.42;;;;;;;;;;5015350;28;20625;-87
2022/02/16 06:47:48;;;;;;;17.48;16.67;;;;;;;;;;5015639;28;20537;-89
2022/02/16 06:50:15;;;;;;;16.73;16.03;;;;;;;;;;5015305;28;20203;-89
2022/02/16 06:52:43;;;;;;;17.90;17.10;;;;;;;;;;5015195;28;20496;-90
2022/02/16 06:55:11;;;;;;;18.57;17.67;;;;;;;;;;5015413;28;20209;-88
2022/02/16 06:57:40;;;;;;;16.73;16.03;;;;;;;;;;5015002;28;20437;-88
2022/02/16 07:00:08;;;;;;;16.40;15.70;;;;;;;;;;5015154;28;20489;-88
2022/02/16 07:02:42;;;;;;;18.23;17.33;;;;;;;;;;5014164;28;20453;-89
2022/02/16 07:05:10;;;;;;;17.90;17.10;;;;;;;;;;5015152;28;20454;-89
2022/02/16 07:07:37;;;;;;;17.17;16.37;;;;;;;;;;5014668;28;20423;-90
2022/02/16 07:10:05;;;;;;;17.10;16.37;;;;;;;;;;5014917;28;20886;-90
2022/02/16 07:12:33;;;;;;;17.63;16.83;;;;;;;;;;5014930;28;20415;-90
2022/02/16 07:15:11;;;;;;;17.30;16.48;;;;;;;;;;5014894;28;20459;-90
2022/02/16 07:17:39;;;;;;;16.90;16.10;;;;;;;;;;5014929;28;20190;-90
2022/02/16 07:20:08;;;;;;;16.77;16.07;;;;;;;;;;5015063;28;20555;-88
2022/02/16 07:22:39;;;;;;;16.80;15.98;;;;;;;;;;5014628;28;20426;-88
2022/02/16 07:25:06;;;;;;;17.10;16.30;;;;;;;;;;5014845;28;20202;-89
2022/02/16 07:27:34;;;;;;;18.47;17.57;;;;;;;;;;5014972;28;20411;-89
2022/02/16 07:30:03;;;;;;;17.83;17.02;;;;;;;;;;5014950;28;20824;-89
2022/02/16 07:32:30;;;;;;;17.15;16.35;;;;;;;;;;5014423;28;20305;-89
2022/02/16 07:34:57;;;;;;;17.70;16.90;;;;;;;;;;5014300;28;20241;-89
2022/02/16 07:37:25;;;;;;;17.70;16.90;;;;;;;;;;5014688;28;20468;-89
2022/02/16 07:39:52;;;;;;;17.90;17.10;;;;;;;;;;5014138;28;20496;-89
2022/02/16 07:42:20;;;;;;;18.25;17.45;;;;;;;;;;5015196;28;20456;-89
2022/02/16 07:44:47;;;;;;;17.40;16.60;;;;;;;;;;5015748;28;20191;-90
2022/02/16 07:47:16;;;;;;;17.40;16.60;;;;;;;;;;5015380;28;20194;-89
2022/02/16 07:49:43;;;;;;;17.63;16.67;;;;;;;;;;5015442;28;20197;-93
2022/02/16 07:52:11;;;;;;;18.07;17.27;;;;;;;;;;5014913;28;20416;-91
2022/02/16 07:54:38;;;;;;;18.67;17.77;;;;;;;;;;5015314;28;20450;-92
2022/02/16 07:57:05;;;;;;;16.85;16.15;;;;;;;;;;5014993;28;20897;-91
2022/02/16 07:59:34;;;;;;;18.67;17.57;;;;;;;;;;5017824;28;20244;-90
2022/02/16 08:02:02;;;;;;;18.07;17.27;;;;;;;;;;5015341;28;20848;-91
2022/02/16 08:04:31;;;;;;;18.17;17.37;;;;;;;;;;5013773;28;20535;-86
2022/02/16 08:07:00;;;;;;;18.27;17.47;;;;;;;;;;5015381;28;20444;-91
2022/02/16 08:09:28;;;;;;;17.60;16.80;;;;;;;;;;5015107;28;20478;-91
2022/02/16 08:11:55;;;;;;;17.10;16.40;;;;;;;;;;5015131;28;20533;-91
2022/02/16 08:14:23;;;;;;;18.20;17.40;;;;;;;;;;5016530;28;20201;-88
2022/02/16 08:16:50;;;;;;;16.60;15.90;;;;;;;;;;5015702;28;20423;-88
2022/02/16 08:19:18;;;;;;;17.30;16.50;;;;;;;;;;5014921;28;20496;-89
2022/02/16 08:21:47;;;;;;;17.60;16.80;;;;;;;;;;5013418;28;20968;-90
2022/02/16 08:24:15;;;;;;;17.07;16.17;;;;;;;;;;5016464;28;20445;-90
2022/02/16 08:26:42;;;;;;;17.43;16.63;;;;;;;;;;5015142;28;20447;-91
2022/02/16 08:29:10;;;;;;;17.80;16.90;;;;;;;;;;5014752;28;20433;-89
2022/02/16 08:31:37;;;;;;;17.43;16.73;;;;;;;;;;5014534;28;20973;-90
2022/02/16 08:34:04;;;;;;;16.60;15.90;;;;;;;;;;5013727;28;20473;-90
2022/02/16 08:36:32;;;;;;;16.47;15.77;;;;;;;;;;5014919;28;20407;-94
2022/02/16 08:39:01;;;;;;;17.60;16.90;;;;;;;;;;5014706;28;20957;-91
2022/02/16 08:41:28;;;;;;;17.93;17.13;;;;;;;;;;5014734;28;20452;-91
2022/02/16 08:43:55;;;;;;;18.17;17.37;;;;;;;;;;5015025;28;20448;-91
2022/02/16 08:46:23;;;;;;;16.40;15.80;;;;;;;;;;5015021;28;20441;-91
2022/02/16 08:48:51;;;;;;;17.07;16.37;;;;;;;;;;5014891;28;20434;-91
2022/02/16 08:51:18;;;;;;;17.10;16.40;;;;;;;;;;5014879;28;20448;-90
2022/02/16 08:53:45;;;;;;;17.97;17.27;;;;;;;;;;5014838;28;20424;-90
2022/02/16 08:56:14;;;;;;;17.83;17.13;;;;;;;;;;5017945;28;20419;-90
2022/02/16 08:58:42;;;;;;;19.30;18.50;;;;;;;;;;5014604;28;20429;-89
2022/02/16 09:01:11;;;;;;;19.20;18.40;;;;;;;;;;5015431;28;20437;-90
2022/02/16 09:03:38;;;;;;;21.57;20.67;;;;;;;;;;5014404;28;20448;-90
2022/02/16 09:06:06;;;;;;;20.53;19.63;;;;;;;;;;5018034;28;20427;-88
2022/02/16 09:08:33;;;;;;;21.20;20.30;;;;;;;;;;5018067;28;20426;-89
2022/02/16 09:11:00;;;;;;;19.70;18.90;;;;;;;;;;5023666;28;20453;-88
2022/02/16 09:13:29;;;;;;;21.17;20.27;;;;;;;;;;5019621;28;20427;-89
2022/02/16 09:15:57;;;;;;;20.20;19.30;;;;;;;;;;5020046;28;20205;-88
2022/02/16 09:18:25;;;;;;;20.17;19.27;;;;;;;;;;5021162;28;20476;-87
2022/02/16 09:20:54;;;;;;;20.47;19.57;;;;;;;;;;5021143;28;20522;-87
2022/02/16 09:23:21;;;;;;;20.93;19.97;;;;;;;;;;5031580;28;20429;-85
2022/02/16 09:25:48;;;;;;;19.73;18.87;;;;;;;;;;5038054;28;20424;-88
2022/02/16 09:28:16;;;;;;;20.07;19.17;;;;;;;;;;5025485;28;20439;-86
2022/02/16 09:30:45;;;;;;;19.70;18.90;;;;;;;;;;5022535;28;20428;-90
2022/02/16 09:33:13;;;;;;;20.63;19.43;;;;;;;;;;5025405;28;20234;-87
2022/02/16 09:35:40;;;;;;;19.53;18.73;;;;;;;;;;5018793;28;20438;-83
2022/02/16 09:38:08;;;;;;;19.30;18.50;;;;;;;;;;5021137;28;20419;-87
2022/02/16 09:40:36;;;;;;;18.90;18.10;;;;;;;;;;5021334;28;20480;-86
2022/02/16 09:43:04;;;;;;;19.57;18.77;;;;;;;;;;5020595;28;20441;-83
2022/02/16 09:45:31;;;;;;;18.77;18.00;;;;;;;;;;5019151;28;20444;-90
2022/02/16 09:48:00;;;;;;;19.30;18.50;;;;;;;;;;5018007;28;20534;-86
2022/02/16 09:50:28;;;;;;;19.90;19.00;;;;;;;;;;5019156;28;20416;-86
2022/02/16 09:52:55;;;;;;;20.00;19.07;;;;;;;;;;5017201;28;20838;-87
2022/02/16 09:55:22;;;;;;;20.90;20.00;;;;;;;;;;5017173;28;20823;-85
2022/02/16 09:57:50;;;;;;;20.97;20.17;;;;;;;;;;5016841;28;20446;-86
2022/02/16 10:00:17;;;;;;;20.33;19.43;;;;;;;;;;5017252;28;20491;-86
2022/02/16 10:02:46;;;;;;;20.73;19.83;;;;;;;;;;5016497;28;20498;-85
2022/02/16 10:05:16;;;;;;;21.77;20.85;;;;;;;;;;5016525;28;20432;-86
2022/02/16 10:07:44;;;;;;;21.20;20.20;;;;;;;;;;5016580;28;20201;-86
2022/02/16 10:10:16;;;;;;;21.50;20.60;;;;;;;;;;5018434;28;20419;-86
2022/02/16 10:12:46;;;;;;;21.03;20.13;;;;;;;;;;5016402;28;20449;-86
2022/02/16 10:15:14;;;;;;;22.40;21.40;;;;;;;;;;5015836;28;20469;-86
2022/02/16 10:17:42;;;;;;;21.63;20.73;;;;;;;;;;5015716;28;20453;-86
2022/02/16 10:20:11;;;;;;;21.17;20.17;;;;;;;;;;5017049;28;20482;-91
2022/02/16 10:22:44;;;;;;;22.77;21.77;;;;;;;;;;5016864;28;20436;-89
2022/02/16 10:25:16;;;;;;;22.57;21.47;;;;;;;;;;5016780;28;20428;-89
2022/02/16 10:28:03;;;;;;;22.83;21.83;;;;;;;;;;5016266;28;20445;-88
2022/02/16 10:30:31;;;;;;;22.63;21.60;;;;;;;;;;5015987;28;20921;-88
2022/02/16 10:33:14;;;;;;;22.17;21.10;;;;;;;;;;5016773;28;20411;-95
2022/02/16 10:35:44;;;;;;;23.60;22.55;;;;;;;;;;5017203;28;20414;-85
2022/02/16 10:38:13;;;;;;;24.30;23.20;;;;;;;;;;5015660;28;20220;-87
2022/02/16 10:40:40;;;;;;;23.80;22.70;;;;;;;;;;5015508;28;20459;-85
2022/02/16 10:43:09;;;;;;;26.03;24.87;;;;;;;;;;5018190;28;20886;-86
2022/02/16 10:45:45;;;;;;;25.35;24.25;;;;;;;;;;5018998;28;20915;-87
2022/02/16 10:48:13;;;;;;;24.37;23.17;;;;;;;;;;5018336;28;20232;-89
2022/02/16 10:50:49;;;;;;;25.23;24.13;;;;;;;;;;5017272;28;20412;-88
2022/02/16 10:53:25;;;;;;;25.77;24.57;;;;;;;;;;5017875;28;20448;-88
2022/02/16 10:55:53;;;;;;;24.93;23.73;;;;;;;;;;5017330;28;20431;-86
2022/02/16 10:58:22;;;;;;;25.90;24.70;;;;;;;;;;5018425;28;20434;-89
2022/02/16 11:00:51;;;;;;;24.70;23.60;;;;;;;;;;5019574;28;20491;-85
2022/02/16 11:03:22;;;;;;;25.93;24.73;;;;;;;;;;5021049;28;20455;-88
2022/02/16 11:05:50;;;;;;;25.87;24.73;;;;;;;;;;5022947;28;20442;-89
2022/02/16 11:08:20;;;;;;;24.93;23.83;;;;;;;;;;5019669;28;20484;-88
2022/02/16 11:10:49;;;;;;;31.60;30.10;;;;;;;;;;5020714;28;20408;-90
2022/02/16 11:13:18;;;;;;;30.00;28.60;;;;;;;;;;5024593;28;20423;-92
2022/02/16 11:15:47;;;;;;;29.47;28.07;;;;;;;;;;5019679;28;20456;-88
2022/02/16 11:18:16;;;;;;;28.70;27.40;;;;;;;;;;5019872;28;20473;-87
2022/02/16 11:20:44;;;;;;;30.50;29.10;;;;;;;;;;5020124;28;20489;-79
2022/02/16 11:23:13;;;;;;;31.13;29.63;;;;;;;;;;5020098;28;20445;-91
2022/02/16 11:25:42;;;;;;;31.53;30.03;;;;;;;;;;5017080;28;20445;-89
2022/02/16 11:28:14;;;;;;;31.80;30.30;;;;;;;;;;5016166;28;20408;-89
2022/02/16 11:30:44;;;;;;;30.07;28.67;;;;;;;;;;5020756;28;20499;-89
2022/02/16 11:33:13;;;;;;;32.13;30.63;;;;;;;;;;5020094;28;20522;-89
2022/02/16 11:35:48;;;;;;;34.53;32.80;;;;;;;;;;5021336;28;20419;-89
2022/02/16 11:38:16;;;;;;;31.93;30.43;;;;;;;;;;5019789;28;20432;-88
2022/02/16 11:40:44;;;;;;;34.07;32.47;;;;;;;;;;5020103;28;20456;-88
2022/02/16 11:43:14;;;;;;;33.87;32.27;;;;;;;;;;5019595;28;20456;-88
2022/02/16 11:45:42;;;;;;;32.80;31.30;;;;;;;;;;5019463;28;20894;-88
2022/02/16 11:48:12;;;;;;;33.80;32.20;;;;;;;;;;5019524;28;20418;-89
2022/02/16 11:50:40;;;;;;;36.00;34.20;;;;;;;;;;5021760;28;20448;-90
2022/02/16 11:53:08;;;;;;;35.90;34.10;;;;;;;;;;5019742;28;20434;-89
2022/02/16 11:55:36;;;;;;;34.70;33.00;;;;;;;;;;5019902;28;20436;-88
2022/02/16 11:58:16;;;;;;;34.97;33.17;;;;;;;;;;5020260;28;20419;-90
2022/02/16 12:00:45;;;;;;;32.10;30.60;;;;;;;;;;5020981;28;20515;-92
2022/02/16 12:03:17;;;;;;;35.63;33.93;;;;;;;;;;5021363;28;20455;-85
2022/02/16 12:05:49;;;;;;;36.10;34.40;;;;;;;;;;5023038;28;20400;-86
2022/02/16 12:08:17;;;;;;;38.57;36.67;;;;;;;;;;5026441;28;20448;-91
2022/02/16 12:10:45;;;;;;;39.30;37.20;;;;;;;;;;5020589;28;20430;-83
2022/02/16 12:13:15;;;;;;;38.23;36.23;;;;;;;;;;5018385;28;20437;-88
2022/02/16 12:15:42;;;;;;;37.93;36.13;;;;;;;;;;5019272;28;20416;-86
2022/02/16 12:18:15;;;;;;;36.40;34.50;;;;;;;;;;5017958;28;20456;-82
2022/02/16 12:20:42;;;;;;;38.20;35.87;;;;;;;;;;5017356;28;20492;-87
2022/02/16 12:23:10;;;;;;;34.83;33.17;;;;;;;;;;5018535;28;20830;-88
2022/02/16 12:25:37;;;;;;;33.93;31.40;;;;;;;;;;5017869;28;20416;-93
2022/02/16 12:28:06;;;;;;;37.60;35.70;;;;;;;;;;5016915;28;20431;-86
2022/02/16 12:30:36;;;;;;;35.37;33.63;;;;;;;;;;5016772;28;20823;-83
2022/02/16 12:33:04;;;;;;;34.00;32.30;;;;;;;;;;5019109;28;20444;-83
2022/02/16 12:35:35;;;;;;;36.00;34.23;;;;;;;;;;5020349;28;20445;-85
2022/02/16 12:38:02;;;;;;;35.37;33.77;;;;;;;;;;5020340;28;20433;-87
2022/02/16 12:40:30;;;;;;;36.30;34.50;;;;;;;;;;5022867;28;20463;-88
2022/02/16 12:42:57;;;;;;;36.07;34.37;;;;;;;;;;5022311;28;20444;-87
2022/02/16 12:45:25;;;;;;;37.57;35.87;;;;;;;;;;5022456;28;20469;-88
2022/02/16 12:47:58;;;;;;;37.50;35.70;;;;;;;;;;5022744;28;20491;-80
2022/02/16 12:50:26;;;;;;;36.30;34.50;;;;;;;;;;5021800;28;20424;-90
2022/02/16 12:52:58;;;;;;;38.23;36.13;;;;;;;;;;5018111;28;20419;-88
2022/02/16 12:55:26;;;;;;;37.63;35.63;;;;;;;;;;5018024;28;20452;-89
2022/02/16 12:57:54;;;;;;;36.47;34.70;;;;;;;;;;5018988;28;20976;-91
2022/02/16 13:03:10;;;;;;;38.60;36.63;;;;;;;;;;5017402;28;20434;-85
2022/02/16 13:05:39;;;;;;;42.30;39.90;;;;;;;;;;5017714;28;20445;-88
2022/02/16 13:08:07;;;;;;;40.63;38.43;;;;;;;;;;5019975;28;20503;-81
2022/02/16 13:10:36;;;;;;;41.30;39.10;;;;;;;;;;5022627;28;20458;-82
2022/02/16 13:13:15;;;;;;;39.90;37.90;;;;;;;;;;5020779;28;20527;-81
2022/02/16 13:15:45;;;;;;;43.50;41.13;;;;;;;;;;5019650;28;20419;-81
2022/02/16 13:18:14;;;;;;;38.90;36.90;;;;;;;;;;5018390;28;20448;-80
2022/02/16 13:20:44;;;;;;;36.00;34.20;;;;;;;;;;5018907;28;21019;-81
2022/02/16 13:23:15;;;;;;;35.67;33.80;;;;;;;;;;5019074;28;20416;-80
2022/02/16 13:25:43;;;;;;;39.33;37.30;;;;;;;;;;5018262;28;20920;-81
2022/02/16 13:28:16;;;;;;;41.70;39.30;;;;;;;;;;5018145;28;20787;-81
2022/02/16 13:30:44;;;;;;;43.47;41.17;;;;;;;;;;5019605;28;20221;-90
2022/02/16 13:33:18;;;;;;;41.07;38.70;;;;;;;;;;5020051;28;20993;-81
2022/02/16 13:35:47;;;;;;;44.43;41.93;;;;;;;;;;5020660;28;20412;-85
2022/02/16 13:38:22;;;;;;;45.27;42.77;;;;;;;;;;5018683;28;20782;-83
2022/02/16 13:40:51;;;;;;;43.57;41.33;;;;;;;;;;5022249;28;20478;-91
2022/02/16 13:43:19;;;;;;;45.10;42.80;;;;;;;;;;5018754;28;20456;-86
2022/02/16 13:45:48;;;;;;;45.10;42.70;;;;;;;;;;5017936;28;20453;-85
2022/02/16 13:48:24;;;;;;;44.03;41.83;;;;;;;;;;5016958;28;20431;-87
2022/02/16 13:50:53;;;;;;;42.80;40.80;;;;;;;;;;5015829;28;20455;-83
2022/02/16 13:53:27;;;;;;;44.00;41.70;;;;;;;;;;5020285;28;20520;-85
2022/02/16 13:56:05;;;;;;;42.30;40.27;;;;;;;;;;5017535;28;20412;-82
2022/02/16 13:58:33;;;;;;;46.40;43.90;;;;;;;;;;5017308;28;20420;-82
2022/02/16 14:01:09;;;;;;;45.80;43.50;;;;;;;;;;5015575;28;20471;-82
2022/02/16 14:03:39;;;;;;;48.53;46.03;;;;;;;;;;5015574;28;20452;-82
2022/02/16 14:06:06;;;;;;;51.60;48.80;;;;;;;;;;5014967;28;20466;-81
2022/02/16 14:08:34;;;;;;;53.33;50.40;;;;;;;;;;5015341;28;20442;-82
2022/02/16 14:11:02;;;;;;;50.93;48.07;;;;;;;;;;5015398;28;20441;-81
2022/02/16 14:13:31;;;;;;;51.37;48.47;;;;;;;;;;5017279;28;20435;-81
2022/02/16 14:16:01;;;;;;;50.67;47.77;;;;;;;;;;5018363;28;20404;-82
2022/02/16 14:18:29;;;;;;;52.47;49.70;;;;;;;;;;5015762;28;20510;-82
2022/02/16 14:21:03;;;;;;;50.17;47.43;;;;;;;;;;5016832;28;20542;-81
2022/02/16 14:23:30;;;;;;;51.23;48.13;;;;;;;;;;5016058;28;20486;-81
2022/02/16 14:25:58;;;;;;;53.37;50.37;;;;;;;;;;5015384;28;20423;-81